Time;durP1;ratioP1;P1;durP2;ratioP2;P2;SDS_P1;SDS_P2;PMS_P1;PMS_P2;Temp;Humidity;BMP_temperature;BMP_pressure;BME280_temperature;BME280_humidity;BME280_pressure;Samples;Min_cycle;Max_cycle;Signal;HPM_P1;HPM_P2
2024/03/14 00:00:50;;;;;;;12.38;7.28;;;282.00;2278.40;;;;;;5053604;28;20033;-77
2024/03/14 00:03:16;;;;;;;14.32;7.47;;;282.10;2278.40;;;;;;5061865;28;20066;-77
2024/03/14 00:05:43;;;;;;;13.00;8.77;;;282.00;2278.40;;;;;;5042213;28;20469;-78
2024/03/14 00:08:09;;;;;;;11.90;6.80;;;282.00;2278.40;;;;;;5047392;28;20402;-77
2024/03/14 00:10:35;;;;;;;12.82;6.28;;;282.00;2278.40;;;;;;5045202;28;20040;-78
2024/03/14 00:13:01;;;;;;;10.55;6.05;;;282.00;2278.40;;;;;;5046701;28;20099;-77
2024/03/14 00:15:30;;;;;;;8.70;5.63;;;282.00;2278.40;;;;;;5063265;28;20093;-81
2024/03/14 00:17:57;;;;;;;11.77;6.88;;;282.00;2278.40;;;;;;5070100;28;20025;-78
2024/03/14 00:20:23;;;;;;;11.25;6.40;;;282.00;2278.40;;;;;;5065763;28;20037;-78
2024/03/14 00:22:49;;;;;;;7.30;5.70;;;282.00;2278.40;;;;;;5041564;28;20028;-78
2024/03/14 00:25:15;;;;;;;8.13;5.35;;;282.00;2278.40;;;;;;5044617;28;20489;-78
2024/03/14 00:27:43;;;;;;;10.07;5.20;;;282.00;2278.40;;;;;;5046524;28;20060;-78
2024/03/14 00:30:11;;;;;;;9.90;6.03;;;282.10;2278.40;;;;;;5048814;28;20037;-77
2024/03/14 00:32:40;;;;;;;8.13;5.88;;;282.00;2278.40;;;;;;5038627;28;20189;-77
2024/03/14 00:35:06;;;;;;;8.48;5.75;;;282.10;2278.40;;;;;;5047348;28;20029;-77
2024/03/14 00:37:33;;;;;;;10.32;5.95;;;282.10;2278.40;;;;;;5025908;28;20039;-77
2024/03/14 00:39:59;;;;;;;10.13;5.43;;;282.10;2278.40;;;;;;5060844;28;20044;-79
2024/03/14 00:42:26;;;;;;;8.52;5.32;;;282.00;2278.40;;;;;;5067305;28;20029;-77
2024/03/14 00:44:52;;;;;;;9.23;5.82;;;282.00;2278.40;;;;;;5071738;28;20032;-78
2024/03/14 00:47:18;;;;;;;10.60;6.07;;;281.90;2278.40;;;;;;5039998;28;20025;-78
2024/03/14 00:49:44;;;;;;;13.45;7.70;;;281.90;2278.40;;;;;;5041898;28;20033;-77
2024/03/14 00:52:11;;;;;;;15.10;7.82;;;281.90;2278.40;;;;;;5064868;28;20421;-79
2024/03/14 00:54:37;;;;;;;14.85;7.18;;;282.00;2278.40;;;;;;5047854;28;20066;-77
2024/03/14 00:57:03;;;;;;;8.43;5.38;;;282.00;2278.40;;;;;;5046262;28;20025;-78
2024/03/14 00:59:30;;;;;;;11.40;7.03;;;282.00;2278.40;;;;;;5052508;28;20121;-75
2024/03/14 01:01:56;;;;;;;12.52;6.30;;;282.00;2278.40;;;;;;5066547;28;20024;-77
2024/03/14 01:04:22;;;;;;;8.57;5.25;;;282.00;2278.40;;;;;;5039923;28;20028;-76
2024/03/14 01:06:49;;;;;;;9.35;6.20;;;281.90;2278.40;;;;;;5042296;28;20047;-75
2024/03/14 01:09:16;;;;;;;11.98;7.28;;;282.00;2278.40;;;;;;5053244;28;20037;-76
2024/03/14 01:11:43;;;;;;;10.02;6.25;;;281.90;2278.40;;;;;;5037576;28;20013;-74
2024/03/14 01:14:11;;;;;;;10.25;6.43;;;282.00;2278.40;;;;;;5034728;28;20041;-76
2024/03/14 01:16:39;;;;;;;15.48;8.38;;;282.00;2278.40;;;;;;5053455;28;20463;-75
2024/03/14 01:19:06;;;;;;;13.48;8.10;;;282.00;2278.40;;;;;;5035338;28;20386;-77
2024/03/14 01:21:38;;;;;;;10.52;6.95;;;282.00;2278.40;;;;;;5034274;28;20033;-77
2024/03/14 01:24:04;;;;;;;15.50;8.10;;;282.00;2278.40;;;;;;5035157;28;20108;-76
2024/03/14 01:26:30;;;;;;;12.63;8.60;;;282.00;2278.40;;;;;;5053081;28;20106;-77
2024/03/14 01:28:56;;;;;;;16.45;9.27;;;281.90;2278.40;;;;;;5035127;28;20481;-76
2024/03/14 01:31:22;;;;;;;15.02;9.88;;;281.90;2278.40;;;;;;5035183;28;20112;-76
2024/03/14 01:33:48;;;;;;;17.48;10.18;;;282.00;2278.40;;;;;;5052965;28;20057;-77
2024/03/14 01:36:14;;;;;;;24.52;12.50;;;282.00;2278.40;;;;;;5052777;28;20581;-75
2024/03/14 01:38:41;;;;;;;22.30;10.90;;;282.00;2278.40;;;;;;5052732;28;20029;-75
2024/03/14 01:41:19;;;;;;;23.05;11.25;;;282.10;2278.40;;;;;;5052886;28;20060;-76
2024/03/14 01:44:00;;;;;;;16.80;7.93;;;282.10;2278.40;;;;;;5052747;28;20025;-77
2024/03/14 01:46:28;;;;;;;12.23;7.13;;;282.20;2278.40;;;;;;5034675;28;20037;-76
2024/03/14 01:48:55;;;;;;;13.52;6.38;;;282.20;2278.40;;;;;;5052751;28;20021;-76
2024/03/14 01:51:25;;;;;;;14.55;7.15;;;282.20;2278.40;;;;;;5052022;28;20028;-77
2024/03/14 01:53:59;;;;;;;12.65;7.22;;;282.20;2278.40;;;;;;5051130;28;20099;-78
2024/03/14 01:56:25;;;;;;;12.73;7.25;;;282.20;2278.40;;;;;;5052905;28;20070;-75
2024/03/14 01:58:52;;;;;;;16.15;8.30;;;282.10;2278.40;;;;;;5051424;28;20025;-76
2024/03/14 02:01:20;;;;;;;15.15;8.15;;;282.10;2278.40;;;;;;5051633;28;20117;-77
2024/03/14 02:03:56;;;;;;;14.50;7.43;;;281.90;2278.40;;;;;;5034792;28;20497;-76
2024/03/14 02:06:34;;;;;;;20.05;8.77;;;282.00;2278.40;;;;;;5052486;28;20055;-76
2024/03/14 02:09:00;;;;;;;14.05;8.18;;;282.10;2278.40;;;;;;5052617;28;20406;-76
2024/03/14 02:11:26;;;;;;;16.88;8.80;;;282.00;2278.40;;;;;;5052636;28;20077;-76
2024/03/14 02:13:51;;;;;;;13.05;7.63;;;282.00;2278.40;;;;;;5034909;28;20033;-77
2024/03/14 02:16:17;;;;;;;10.32;7.13;;;282.00;2278.40;;;;;;5052590;28;20025;-76
2024/03/14 02:18:45;;;;;;;16.10;8.35;;;281.90;2278.40;;;;;;5034975;28;20036;-77
2024/03/14 02:21:12;;;;;;;10.55;7.00;;;281.90;2278.40;;;;;;5052910;28;20017;-76
2024/03/14 02:23:38;;;;;;;11.85;7.65;;;281.90;2278.40;;;;;;5050821;28;20052;-76
2024/03/14 02:26:06;;;;;;;11.38;7.82;;;282.00;2278.40;;;;;;5052716;28;20470;-76
2024/03/14 02:28:32;;;;;;;12.25;7.40;;;282.00;2278.40;;;;;;5052688;28;20382;-76
2024/03/14 02:30:58;;;;;;;15.30;7.65;;;282.00;2278.40;;;;;;5052730;28;20044;-79
2024/03/14 02:33:24;;;;;;;11.35;6.65;;;282.00;2278.40;;;;;;5052862;28;20021;-78
2024/03/14 02:35:50;;;;;;;9.18;6.45;;;282.00;2278.40;;;;;;5054193;28;20075;-80
2024/03/14 02:38:16;;;;;;;10.70;6.43;;;282.00;2278.40;;;;;;5055701;28;20033;-78
2024/03/14 02:40:42;;;;;;;11.02;6.70;;;282.00;2278.40;;;;;;5055988;28;20017;-77
2024/03/14 02:43:08;;;;;;;9.93;6.65;;;282.00;2278.40;;;;;;5055866;28;20017;-78
2024/03/14 02:45:36;;;;;;;15.95;7.28;;;282.00;2278.40;;;;;;5055877;28;20087;-78
2024/03/14 02:48:04;;;;;;;13.00;7.57;;;282.00;2278.40;;;;;;5045139;28;20025;-77
2024/03/14 02:50:30;;;;;;;11.05;6.57;;;282.00;2278.40;;;;;;5054268;28;20032;-77
2024/03/14 02:52:57;;;;;;;12.00;6.57;;;282.00;2278.40;;;;;;5055741;28;20025;-78
2024/03/14 02:55:23;;;;;;;11.43;7.13;;;281.90;2278.40;;;;;;5051019;28;20505;-78
2024/03/14 02:57:49;;;;;;;10.73;6.35;;;282.00;2278.40;;;;;;5047845;28;20490;-79
2024/03/14 03:00:19;;;;;;;13.20;6.95;;;281.90;2278.40;;;;;;5053814;28;20033;-77
2024/03/14 03:02:45;;;;;;;10.88;5.70;;;281.90;2278.40;;;;;;5054280;28;20055;-78
2024/03/14 03:05:10;;;;;;;9.77;6.50;;;281.90;2278.40;;;;;;5054307;28;20033;-80
2024/03/14 03:07:37;;;;;;;8.98;5.00;;;281.80;2278.40;;;;;;5054226;28;20049;-78
2024/03/14 03:10:06;;;;;;;9.55;5.28;;;281.80;2278.40;;;;;;5049820;28;20120;-77
2024/03/14 03:12:39;;;;;;;8.02;5.45;;;281.80;2278.40;;;;;;5048670;28;20029;-78
2024/03/14 03:15:06;;;;;;;9.77;4.40;;;281.80;2278.40;;;;;;5055645;28;20017;-78
2024/03/14 03:17:32;;;;;;;7.32;4.47;;;281.70;2278.40;;;;;;5055433;28;20406;-78
2024/03/14 03:19:57;;;;;;;8.60;4.43;;;281.70;2278.40;;;;;;5054277;28;20122;-77
2024/03/14 03:22:28;;;;;;;7.50;4.90;;;281.80;2278.40;;;;;;5028261;28;20040;-77
2024/03/14 03:24:53;;;;;;;9.57;5.93;;;281.70;2278.40;;;;;;5055230;28;20052;-78
2024/03/14 03:27:19;;;;;;;8.82;5.10;;;281.70;2278.40;;;;;;5055120;28;20043;-78
2024/03/14 03:29:45;;;;;;;;;;;281.60;2278.40;;;;;;5054306;28;20040;-80
2024/03/14 03:32:11;;;;;;;18.10;10.27;;;281.60;2278.40;;;;;;5055189;28;19908;-78
2024/03/14 03:34:37;;;;;;;;;;;281.60;2278.40;;;;;;5043022;28;20040;-79
2024/03/14 03:37:05;;;;;;;9.75;5.75;;;256.90;2252.80;;;;;;5053249;28;19944;-78
2024/03/14 03:39:31;;;;;;;7.65;4.28;;;256.90;2252.80;;;;;;5053459;28;20140;-77
2024/03/14 03:41:57;;;;;;;8.25;4.45;;;256.80;2252.80;;;;;;5053617;28;20076;-78
2024/03/14 03:44:23;;;;;;;;;;;256.70;2252.80;;;;;;5054158;28;20098;-78
2024/03/14 03:46:51;;;;;;;7.93;3.38;;;256.70;2252.80;;;;;;5052769;28;20376;-77
2024/03/14 03:49:16;;;;;;;6.45;3.60;;;256.70;2252.80;;;;;;5055156;28;20029;-78
2024/03/14 03:51:45;;;;;;;6.13;3.67;;;256.60;2252.80;;;;;;5053289;28;20139;-78
2024/03/14 03:54:11;;;;;;;6.20;4.15;;;256.60;2252.80;;;;;;5054027;28;20116;-78
2024/03/14 03:56:37;;;;;;;7.45;4.32;;;256.60;2252.80;;;;;;5054450;28;20105;-77
2024/03/14 03:59:07;;;;;;;5.63;3.92;;;256.70;2252.80;;;;;;5054804;28;20089;-78
2024/03/14 04:01:33;;;;;;;6.00;3.97;;;256.70;2252.80;;;;;;5054238;28;20021;-78
2024/03/14 04:04:00;;;;;;;8.30;4.20;;;256.70;2252.80;;;;;;5054355;28;20071;-79
2024/03/14 04:06:27;;;;;;;7.07;3.88;;;256.60;2252.80;;;;;;5052883;28;20025;-78
2024/03/14 04:08:54;;;;;;;10.07;4.28;;;256.60;2252.80;;;;;;5053301;28;20036;-76
2024/03/14 04:11:19;;;;;;;11.68;5.53;;;256.60;2252.80;;;;;;5053095;28;20070;-79
2024/03/14 04:13:45;;;;;;;8.63;4.93;;;256.80;2252.80;;;;;;5054519;28;20104;-77
2024/03/14 04:16:15;;;;;;;9.25;5.00;;;256.60;2252.80;;;;;;5026605;28;20025;-78
2024/03/14 04:18:41;;;;;;;9.52;5.82;;;256.50;2252.80;;;;;;5053272;28;20068;-77
2024/03/14 04:21:13;;;;;;;9.25;5.00;;;256.50;2252.80;;;;;;5050358;28;20056;-78
2024/03/14 04:23:39;;;;;;;9.07;5.35;;;256.50;2252.80;;;;;;5045671;28;20032;-80
2024/03/14 04:26:09;;;;;;;7.43;4.13;;;256.40;2252.80;;;;;;5052575;28;20108;-77
2024/03/14 04:28:37;;;;;;;7.88;4.70;;;256.30;2252.80;;;;;;5054009;28;20025;-79
2024/03/14 04:31:05;;;;;;;9.52;5.10;;;256.20;2252.80;;;;;;5054275;28;20025;-80
2024/03/14 04:33:32;;;;;;;11.02;5.00;;;256.30;2252.80;;;;;;5053933;28;20017;-77
2024/03/14 04:35:58;;;;;;;8.07;5.25;;;256.30;2252.80;;;;;;5052851;28;20037;-77
2024/03/14 04:38:23;;;;;;;8.07;4.40;;;256.30;2252.80;;;;;;5052105;28;20094;-77
2024/03/14 04:40:49;;;;;;;12.02;5.30;;;256.30;2252.80;;;;;;5053822;28;20036;-78
2024/03/14 04:43:15;;;;;;;6.03;3.72;;;256.30;2252.80;;;;;;5052376;28;20052;-79
2024/03/14 04:45:41;;;;;;;8.00;4.15;;;256.20;2252.80;;;;;;5053945;28;20029;-77
2024/03/14 04:48:06;;;;;;;13.60;6.72;;;256.20;2252.80;;;;;;5052286;28;20103;-79
2024/03/14 04:50:32;;;;;;;11.23;5.47;;;256.20;2252.80;;;;;;5052278;28;20032;-77
2024/03/14 04:52:58;;;;;;;12.85;5.07;;;256.30;2252.80;;;;;;5041242;28;20025;-80
2024/03/14 04:55:24;;;;;;;10.35;5.18;;;256.30;2252.80;;;;;;5053163;28;20090;-80
2024/03/14 04:57:50;;;;;;;8.75;4.97;;;256.50;2252.80;;;;;;5045345;28;20068;-79
2024/03/14 05:02:51;;;;;;;9.10;5.40;;;256.50;2252.80;;;;;;5053355;28;20052;-78
2024/03/14 05:05:17;;;;;;;10.10;5.25;;;256.50;2252.80;;;;;;5052280;28;20021;-77
2024/03/14 05:07:44;;;;;;;10.50;5.38;;;256.30;2252.80;;;;;;5051994;28;20417;-77
2024/03/14 05:10:13;;;;;;;11.55;5.50;;;256.40;2252.80;;;;;;5051932;28;20483;-78
2024/03/14 05:12:39;;;;;;;25.48;11.30;;;256.30;2252.80;;;;;;5053388;28;20116;-77
2024/03/14 05:15:07;;;;;;;28.20;11.68;;;256.40;2252.80;;;;;;5053591;28;20466;-78
2024/03/14 05:17:33;;;;;;;23.10;10.43;;;256.40;2252.80;;;;;;5047908;28;20033;-78
2024/03/14 05:19:59;;;;;;;84.65;31.20;;;256.40;2252.80;;;;;;5051673;28;20033;-77
2024/03/14 05:22:28;;;;;;;46.67;21.67;;;256.30;2252.80;;;;;;5053253;28;20405;-77
2024/03/14 05:24:58;;;;;;;13.68;6.63;;;256.40;2252.80;;;;;;5052195;28;20047;-77
2024/03/14 05:27:27;;;;;;;9.52;5.65;;;256.30;2252.80;;;;;;5053108;28;20348;-78
2024/03/14 05:29:53;;;;;;;11.38;5.88;;;256.30;2252.80;;;;;;5052078;28;20135;-78
2024/03/14 05:32:20;;;;;;;8.95;5.22;;;256.10;2252.80;;;;;;5048702;28;20518;-77
2024/03/14 05:34:49;;;;;;;10.15;5.50;;;256.20;2252.80;;;;;;5052107;28;20025;-77
2024/03/14 05:37:16;;;;;;;9.55;5.53;;;256.10;2252.80;;;;;;5049847;28;20028;-78
2024/03/14 05:39:42;;;;;;;8.60;5.43;;;256.20;2252.80;;;;;;5051616;28;20090;-78
2024/03/14 05:42:18;;;;;;;9.18;4.97;;;231.20;2252.80;;;;;;5053116;28;20477;-77
2024/03/14 05:44:48;;;;;;;8.10;4.72;;;256.20;2252.80;;;;;;5051764;28;20025;-79
2024/03/14 05:47:14;;;;;;;8.57;4.50;;;256.30;2252.80;;;;;;5051813;28;20024;-79
2024/03/14 05:49:40;;;;;;;8.35;4.45;;;256.20;2252.80;;;;;;5041866;28;20025;-77
2024/03/14 05:52:06;;;;;;;9.35;5.07;;;256.10;2252.80;;;;;;5039749;28;20360;-78
2024/03/14 05:54:32;;;;;;;10.07;5.57;;;256.10;2252.80;;;;;;5052101;28;20037;-77
2024/03/14 05:56:58;;;;;;;19.63;9.30;;;256.10;2252.80;;;;;;5051390;28;20036;-77
2024/03/14 05:59:24;;;;;;;14.27;8.18;;;256.20;2252.80;;;;;;5052173;28;20041;-78
2024/03/14 06:01:51;;;;;;;18.48;9.27;;;256.20;2252.80;;;;;;5041581;28;20017;-77
2024/03/14 06:04:17;;;;;;;13.18;7.25;;;256.20;2252.80;;;;;;5051640;28;20102;-78
2024/03/14 06:06:43;;;;;;;12.45;5.68;;;256.30;2252.80;;;;;;5021719;28;20094;-77
2024/03/14 06:09:12;;;;;;;12.38;6.53;;;256.30;2252.80;;;;;;5037338;28;20037;-77
2024/03/14 06:11:38;;;;;;;12.45;6.78;;;256.30;2252.80;;;;;;5056727;28;20486;-78
2024/03/14 06:14:04;;;;;;;15.23;7.05;;;256.40;2252.80;;;;;;5054883;28;20527;-79
2024/03/14 06:16:31;;;;;;;19.45;10.50;;;256.40;2252.80;;;;;;5055406;28;20104;-78
2024/03/14 06:18:59;;;;;;;17.60;9.32;;;256.50;2252.80;;;;;;5070830;28;20032;-79
2024/03/14 06:21:24;;;;;;;116.13;60.83;;;256.50;2252.80;;;;;;5049112;28;20028;-77
2024/03/14 06:23:51;;;;;;;74.10;40.28;;;256.50;2252.80;;;;;;5053998;28;20055;-81
2024/03/14 06:26:17;;;;;;;34.63;18.00;;;256.50;2252.80;;;;;;5053826;28;20112;-78
2024/03/14 06:28:45;;;;;;;14.15;9.07;;;256.50;2252.80;;;;;;5040255;28;20057;-79
2024/03/14 06:31:14;;;;;;;23.10;12.13;;;256.50;2252.80;;;;;;5038516;28;20024;-76
2024/03/14 06:33:40;;;;;;;71.22;28.10;;;256.50;2252.80;;;;;;5028687;28;20086;-80
2024/03/14 06:36:07;;;;;;;42.15;16.85;;;256.50;2252.80;;;;;;5043042;28;20178;-79
2024/03/14 06:38:33;;;;;;;39.65;16.77;;;256.60;2252.80;;;;;;5053297;28;20040;-79
2024/03/14 06:40:59;;;;;;;45.85;20.33;;;256.60;2252.80;;;;;;5068548;28;20029;-78
2024/03/14 06:43:25;;;;;;;60.10;19.17;;;256.60;2252.80;;;;;;5070635;28;20377;-79
2024/03/14 06:45:51;;;;;;;101.40;30.52;;;256.60;2252.80;;;;;;5064075;28;20027;-78
2024/03/14 06:48:17;;;;;;;109.20;36.80;;;256.70;2252.80;;;;;;5071797;28;20021;-77
2024/03/14 06:50:45;;;;;;;82.90;27.70;;;256.60;2252.80;;;;;;5070910;28;20074;-80
2024/03/14 06:53:12;;;;;;;155.15;52.45;;;256.70;2252.80;;;;;;5071687;28;20047;-78
2024/03/14 06:55:38;;;;;;;94.32;36.10;;;256.70;2252.80;;;;;;5042444;28;20024;-78
2024/03/14 06:58:04;;;;;;;37.63;18.67;;;256.80;2252.80;;;;;;5054789;28;20029;-78
2024/03/14 07:00:30;;;;;;;36.83;17.67;;;256.80;2252.80;;;;;;5070125;28;20046;-79
2024/03/14 07:02:56;;;;;;;24.40;10.80;;;256.90;2252.80;;;;;;5051224;28;20021;-78
2024/03/14 07:05:27;;;;;;;20.13;10.02;;;256.90;2252.80;;;;;;5061927;28;20029;-79
2024/03/14 07:07:53;;;;;;;20.25;10.68;;;256.90;2252.80;;;;;;5060967;28;20045;-79
2024/03/14 07:10:19;;;;;;;23.27;12.18;;;256.80;2252.80;;;;;;5069594;28;20028;-78
2024/03/14 07:12:48;;;;;;;24.27;13.43;;;256.90;2252.80;;;;;;5062414;28;20033;-80
2024/03/14 07:15:15;;;;;;;16.38;10.40;;;281.60;2278.40;;;;;;5061571;28;20025;-79
2024/03/14 07:17:41;;;;;;;15.43;8.00;;;281.60;2278.40;;;;;;5032045;28;20032;-80
2024/03/14 07:20:16;;;;;;;11.70;7.68;;;281.60;2278.40;;;;;;5031024;28;20060;-80
2024/03/14 07:22:45;;;;;;;12.65;6.55;;;281.70;2278.40;;;;;;5050199;28;20021;-77
2024/03/14 07:25:18;;;;;;;13.73;7.47;;;281.70;2278.40;;;;;;5068976;28;20044;-76
2024/03/14 07:27:44;;;;;;;12.10;7.95;;;281.70;2278.40;;;;;;5064268;28;20101;-79
2024/03/14 07:30:14;;;;;;;13.63;8.15;;;281.80;2278.40;;;;;;5036770;28;20489;-81
2024/03/14 07:32:47;;;;;;;12.95;7.53;;;281.70;2278.40;;;;;;5065879;28;20119;-79
2024/03/14 07:35:14;;;;;;;11.90;7.30;;;281.80;2278.40;;;;;;5071970;28;20035;-78
2024/03/14 07:37:40;;;;;;;14.20;7.78;;;281.80;2278.40;;;;;;5044352;28;20163;-78
2024/03/14 07:40:11;;;;;;;13.35;7.93;;;281.80;2278.40;;;;;;5069767;28;20110;-79
2024/03/14 07:42:40;;;;;;;13.18;7.22;;;281.90;2278.40;;;;;;5033003;28;20021;-81
2024/03/14 07:45:08;;;;;;;18.20;8.45;;;282.00;2278.40;;;;;;5061139;28;20029;-80
2024/03/14 07:47:35;;;;;;;12.02;8.35;;;282.00;2278.40;;;;;;5061296;28;20493;-81
2024/03/14 07:50:01;;;;;;;14.55;7.90;;;282.10;2278.40;;;;;;5047188;28;20094;-81
2024/03/14 07:52:27;;;;;;;14.80;8.50;;;282.00;2278.40;;;;;;5064292;28;20020;-80
2024/03/14 07:54:53;;;;;;;14.13;8.07;;;282.20;2278.40;;;;;;5069000;28;20029;-81
2024/03/14 07:57:21;;;;;;;16.67;9.43;;;282.20;2278.40;;;;;;5044690;28;20389;-80
2024/03/14 07:59:47;;;;;;;19.25;12.10;;;282.20;2278.40;;;;;;5052915;28;20543;-80
2024/03/14 08:02:13;;;;;;;19.48;10.70;;;282.20;2278.40;;;;;;5072276;28;20032;-80
2024/03/14 08:04:41;;;;;;;20.00;12.57;;;282.20;2278.40;;;;;;5064926;28;20486;-80
2024/03/14 08:07:22;;;;;;;16.15;9.07;;;282.30;2278.40;;;;;;5050670;28;20056;-81
2024/03/14 08:09:48;;;;;;;13.52;7.70;;;282.30;2278.40;;;;;;5069544;28;20043;-80
2024/03/14 08:12:14;;;;;;;11.95;7.53;;;282.30;2278.40;;;;;;5063764;28;20036;-80
2024/03/14 08:14:44;;;;;;;16.63;9.80;;;282.40;2278.40;;;;;;5052179;28;20500;-80
2024/03/14 08:17:13;;;;;;;16.42;10.88;;;282.40;2278.40;;;;;;5031962;28;20029;-79
2024/03/14 08:19:40;;;;;;;15.27;8.73;;;282.40;2278.40;;;;;;5050476;28;20041;-79
2024/03/14 08:22:08;;;;;;;15.30;8.45;;;282.50;2278.40;;;;;;5064675;28;20031;-79
2024/03/14 08:24:42;;;;;;;10.77;6.88;;;307.20;2304.00;;;;;;5047880;28;20056;-79
2024/03/14 08:27:12;;;;;;;10.90;6.53;;;282.50;2278.40;;;;;;5057214;28;20026;-78
2024/03/14 08:29:41;;;;;;;11.43;6.47;;;307.20;2304.00;;;;;;5049451;28;20027;-78
2024/03/14 08:32:14;;;;;;;11.68;6.70;;;307.20;2304.00;;;;;;5049969;28;20052;-79
2024/03/14 08:34:40;;;;;;;13.68;7.78;;;307.30;2304.00;;;;;;5040153;28;20098;-80
2024/03/14 08:37:06;;;;;;;11.90;7.90;;;307.30;2304.00;;;;;;5059623;28;20481;-80
2024/03/14 08:39:33;;;;;;;14.30;9.00;;;307.40;2304.00;;;;;;5055190;28;20037;-79
2024/03/14 08:41:59;;;;;;;14.02;8.27;;;307.40;2304.00;;;;;;5062140;28;20025;-78
2024/03/14 08:44:28;;;;;;;10.80;6.68;;;307.40;2304.00;;;;;;5068487;28;20094;-78
2024/03/14 08:46:53;;;;;;;9.82;6.45;;;307.40;2304.00;;;;;;5068339;28;20025;-78
2024/03/14 08:49:21;;;;;;;13.70;6.78;;;307.40;2304.00;;;;;;5048194;28;21416;-77
2024/03/14 08:51:50;;;;;;;14.77;8.75;;;307.40;2304.00;;;;;;5048612;28;20435;-79
2024/03/14 08:56:52;;;;;;;11.57;6.93;;;307.60;2304.00;;;;;;5069794;28;20024;-79
2024/03/14 08:59:20;;;;;;;15.25;7.25;;;307.60;2304.00;;;;;;5047764;28;20021;-79
2024/03/14 09:01:46;;;;;;;15.10;6.22;;;307.60;2304.00;;;;;;5045505;28;20481;-78
2024/03/14 09:04:12;;;;;;;13.82;7.35;;;307.60;2304.00;;;;;;5067751;28;20469;-79
2024/03/14 09:06:39;;;;;;;12.02;7.63;;;307.70;2304.00;;;;;;5039077;28;20039;-79
2024/03/14 09:09:05;;;;;;;10.15;6.82;;;307.80;2304.00;;;;;;5069222;28;20128;-79
2024/03/14 09:11:32;;;;;;;7.65;4.90;;;307.80;2304.00;;;;;;5047817;28;20044;-78
2024/03/14 09:14:05;;;;;;;9.85;5.72;;;307.80;2304.00;;;;;;5061885;28;20028;-78
2024/03/14 09:16:32;;;;;;;9.60;5.82;;;307.80;2304.00;;;;;;5043691;28;20112;-78
2024/03/14 09:18:59;;;;;;;11.50;6.85;;;307.80;2304.00;;;;;;5045115;28;20460;-78
2024/03/14 09:21:28;;;;;;;11.63;6.55;;;307.90;2304.00;;;;;;5045372;28;20037;-79
2024/03/14 09:23:54;;;;;;;18.17;7.95;;;307.90;2304.00;;;;;;5058015;28;20091;-78
2024/03/14 09:26:20;;;;;;;9.00;5.57;;;308.10;2304.00;;;;;;5068665;28;20041;-77
2024/03/14 09:28:47;;;;;;;18.75;9.80;;;308.10;2304.00;;;;;;5049935;28;20136;-77
2024/03/14 09:31:13;;;;;;;9.07;5.43;;;308.10;2304.00;;;;;;5053056;28;20082;-78
2024/03/14 09:33:40;;;;;;;29.65;17.08;;;308.00;2304.00;;;;;;5030926;28;20543;-78
2024/03/14 09:36:09;;;;;;;11.68;8.00;;;308.10;2304.00;;;;;;5065252;28;20024;-79
2024/03/14 09:38:39;;;;;;;8.05;5.18;;;332.80;2329.60;;;;;;5068082;28;20055;-77
2024/03/14 09:41:05;;;;;;;8.75;4.80;;;332.80;2329.60;;;;;;5046499;28;20090;-78
2024/03/14 09:43:32;;;;;;;6.55;4.18;;;332.90;2329.60;;;;;;5048989;28;20021;-77
2024/03/14 09:46:01;;;;;;;9.25;5.68;;;332.90;2329.60;;;;;;5044449;28;20025;-77
2024/03/14 09:48:31;;;;;;;15.98;8.73;;;332.80;2329.60;;;;;;5067600;28;20024;-77
2024/03/14 09:50:59;;;;;;;8.98;4.75;;;332.90;2329.60;;;;;;5053496;28;20052;-77
2024/03/14 09:53:28;;;;;;;8.27;4.78;;;332.90;2329.60;;;;;;5059321;28;20025;-77
2024/03/14 09:55:54;;;;;;;12.05;7.22;;;333.00;2329.60;;;;;;5057688;28;20020;-77
2024/03/14 09:58:21;;;;;;;10.82;6.28;;;333.00;2329.60;;;;;;5067088;28;20143;-77
2024/03/14 10:00:52;;;;;;;9.93;5.82;;;333.10;2329.60;;;;;;5049382;28;20073;-78
2024/03/14 10:03:20;;;;;;;7.82;4.88;;;333.20;2329.60;;;;;;5071955;28;20537;-79
2024/03/14 10:05:53;;;;;;;10.90;6.55;;;333.20;2329.60;;;;;;5041322;28;20047;-78
2024/03/14 10:08:20;;;;;;;7.50;4.63;;;333.20;2329.60;;;;;;5039969;28;20502;-75
2024/03/14 10:10:46;;;;;;;7.35;4.40;;;333.20;2329.60;;;;;;5067482;28;20036;-77
2024/03/14 10:13:12;;;;;;;8.35;5.00;;;333.20;2329.60;;;;;;5046786;28;20021;-78
2024/03/14 10:15:37;;;;;;;8.13;5.20;;;333.20;2329.60;;;;;;5047719;28;20063;-78
2024/03/14 10:18:10;;;;;;;7.32;4.45;;;333.40;2329.60;;;;;;5045349;28;20025;-77
2024/03/14 10:20:37;;;;;;;6.38;4.20;;;333.40;2329.60;;;;;;5032114;28;20040;-78
2024/03/14 10:23:06;;;;;;;10.25;6.18;;;333.30;2329.60;;;;;;5069663;28;20028;-78
2024/03/14 10:25:38;;;;;;;8.23;5.32;;;333.30;2329.60;;;;;;5049610;28;20043;-79
2024/03/14 10:28:09;;;;;;;13.10;8.05;;;333.30;2329.60;;;;;;5047494;28;20059;-78
2024/03/14 10:30:36;;;;;;;18.02;11.10;;;333.40;2329.60;;;;;;5034626;28;20025;-78
2024/03/14 10:33:02;;;;;;;7.93;5.10;;;333.40;2329.60;;;;;;5048173;28;20090;-79
2024/03/14 10:35:30;;;;;;;9.48;6.30;;;333.20;2329.60;;;;;;5051877;28;20032;-79
2024/03/14 10:37:59;;;;;;;8.93;5.60;;;333.30;2329.60;;;;;;5034715;28;20380;-79
2024/03/14 10:40:29;;;;;;;8.07;3.90;;;333.20;2329.60;;;;;;5038908;28;20037;-80
2024/03/14 10:42:56;;;;;;;9.43;5.30;;;333.30;2329.60;;;;;;5054494;28;20048;-81
2024/03/14 10:45:23;;;;;;;14.23;7.57;;;333.40;2329.60;;;;;;5048651;28;20025;-80
2024/03/14 10:47:54;;;;;;;7.47;4.50;;;333.30;2329.60;;;;;;5055789;28;20427;-80
2024/03/14 10:50:21;;;;;;;8.18;5.07;;;333.30;2329.60;;;;;;5041852;28;20028;-80
2024/03/14 10:52:50;;;;;;;9.93;5.75;;;333.30;2329.60;;;;;;5062137;28;20025;-77
2024/03/14 10:55:23;;;;;;;11.77;5.25;;;333.30;2329.60;;;;;;5066380;28;20021;-78
2024/03/14 10:57:50;;;;;;;9.13;5.50;;;333.40;2329.60;;;;;;5040494;28;20035;-82
2024/03/14 11:00:18;;;;;;;8.40;5.90;;;333.40;2329.60;;;;;;5054382;28;20032;-78
2024/03/14 11:02:47;;;;;;;7.95;5.72;;;333.40;2329.60;;;;;;5039528;28;20032;-80
2024/03/14 11:05:17;;;;;;;10.80;7.35;;;333.50;2329.60;;;;;;5067577;28;20020;-79
2024/03/14 11:07:48;;;;;;;14.95;8.75;;;333.50;2329.60;;;;;;5040058;28;20495;-78
2024/03/14 11:10:28;;;;;;;15.98;8.95;;;333.60;2329.60;;;;;;5032524;28;20371;-78
2024/03/14 11:13:05;;;;;;;15.00;8.77;;;333.50;2329.60;;;;;;5031385;28;20033;-78
2024/03/14 11:15:36;;;;;;;13.13;9.25;;;333.40;2329.60;;;;;;5030666;28;20204;-79
2024/03/14 11:18:06;;;;;;;14.95;10.18;;;333.50;2329.60;;;;;;5052239;28;20128;-79
2024/03/14 11:20:35;;;;;;;14.13;9.65;;;333.60;2329.60;;;;;;5030019;28;20502;-79
2024/03/14 11:23:10;;;;;;;14.27;10.52;;;333.70;2329.60;;;;;;5048029;28;20082;-79
2024/03/14 11:25:37;;;;;;;20.73;12.27;;;358.40;2329.60;;;;;;5075029;28;20055;-78
2024/03/14 11:28:04;;;;;;;15.05;9.55;;;358.50;2329.60;;;;;;5045059;28;20120;-80
2024/03/14 11:30:32;;;;;;;17.77;10.43;;;358.50;2329.60;;;;;;5044363;28;20037;-79
2024/03/14 11:33:06;;;;;;;18.55;10.82;;;358.50;2329.60;;;;;;5068728;28;20012;-80
2024/03/14 11:35:43;;;;;;;12.98;8.73;;;358.50;2329.60;;;;;;5050569;28;20321;-80
2024/03/14 11:38:15;;;;;;;16.45;10.52;;;358.50;2329.60;;;;;;5036367;28;20093;-80
2024/03/14 11:40:45;;;;;;;16.02;9.85;;;358.50;2329.60;;;;;;5052923;28;20047;-80
2024/03/14 11:43:22;;;;;;;15.10;9.45;;;358.50;2329.60;;;;;;5053848;28;20051;-78
2024/03/14 11:45:59;;;;;;;16.77;10.75;;;358.50;2329.60;;;;;;5046547;28;20030;-80
2024/03/14 11:48:30;;;;;;;17.20;9.82;;;358.50;2329.60;;;;;;5068811;28;20094;-79
2024/03/14 11:50:59;;;;;;;15.70;10.02;;;358.50;2329.60;;;;;;5044641;28;20087;-80
2024/03/14 11:53:26;;;;;;;15.55;9.40;;;358.60;2329.60;;;;;;5057045;28;20024;-80
2024/03/14 11:55:55;;;;;;;18.67;10.10;;;358.50;2329.60;;;;;;5024830;28;20037;-81
2024/03/14 11:58:22;;;;;;;16.85;9.93;;;358.60;2329.60;;;;;;5066129;28;20050;-79
2024/03/14 12:00:51;;;;;;;15.73;10.10;;;358.70;2329.60;;;;;;5065767;28;20044;-79
2024/03/14 12:03:18;;;;;;;15.75;10.23;;;358.60;2329.60;;;;;;5043404;28;20029;-80
2024/03/14 12:06:05;;;;;;;19.10;10.82;;;358.70;2329.60;;;;;;5053191;28;20033;-79
2024/03/14 12:08:31;;;;;;;18.35;10.20;;;358.80;2329.60;;;;;;5055260;28;20055;-79
2024/03/14 12:10:57;;;;;;;17.83;11.13;;;358.80;2329.60;;;;;;5063132;28;20512;-81
2024/03/14 12:13:26;;;;;;;20.95;12.45;;;358.90;2329.60;;;;;;5062836;28;20025;-80
2024/03/14 12:16:03;;;;;;;17.83;11.02;;;384.00;2329.60;;;;;;5062105;28;20391;-80
2024/03/14 12:18:36;;;;;;;19.42;12.40;;;409.60;2355.20;;;;;;5046884;28;20032;-80